sensor_id;sensor_type;location;lat;lon;timestamp;temperature;humidity
80274;DHT22;69576;51.902;-8.462;2023-07-31T00:01:56;19.40;71.60
80274;DHT22;69576;51.902;-8.462;2023-07-31T00:04:22;19.40;71.70
80274;DHT22;69576;51.902;-8.462;2023-07-31T00:06:47;19.40;71.60
80274;DHT22;69576;51.902;-8.462;2023-07-31T00:09:13;19.30;71.30
80274;DHT22;69576;51.902;-8.462;2023-07-31T00:11:39;19.30;71.00
80274;DHT22;69576;51.902;-8.462;2023-07-31T00:14:07;19.30;71.10
80274;DHT22;69576;51.902;-8.462;2023-07-31T00:16:33;19.20;71.10
80274;DHT22;69576;51.902;-8.462;2023-07-31T00:18:58;19.20;70.90
80274;DHT22;69576;51.902;-8.462;2023-07-31T00:21:24;19.20;71.10
80274;DHT22;69576;51.902;-8.462;2023-07-31T00:23:50;19.10;71.40
80274;DHT22;69576;51.902;-8.462;2023-07-31T00:26:18;19.20;71.60
80274;DHT22;69576;51.902;-8.462;2023-07-31T00:28:44;19.20;71.70
80274;DHT22;69576;51.902;-8.462;2023-07-31T00:31:12;19.20;71.70
80274;DHT22;69576;51.902;-8.462;2023-07-31T00:33:38;19.10;71.70
80274;DHT22;69576;51.902;-8.462;2023-07-31T00:36:03;19.10;71.60
80274;DHT22;69576;51.902;-8.462;2023-07-31T00:38:29;19.10;71.50
80274;DHT22;69576;51.902;-8.462;2023-07-31T00:40:58;19.10;71.50
80274;DHT22;69576;51.902;-8.462;2023-07-31T00:43:24;19.10;71.30
80274;DHT22;69576;51.902;-8.462;2023-07-31T00:45:53;19.00;71.30
80274;DHT22;69576;51.902;-8.462;2023-07-31T00:48:18;19.00;71.20
80274;DHT22;69576;51.902;-8.462;2023-07-31T00:50:44;19.00;71.20
80274;DHT22;69576;51.902;-8.462;2023-07-31T00:53:13;19.00;71.50
80274;DHT22;69576;51.902;-8.462;2023-07-31T00:55:41;19.00;71.50
80274;DHT22;69576;51.902;-8.462;2023-07-31T00:58:10;19.00;71.60
80274;DHT22;69576;51.902;-8.462;2023-07-31T01:00:36;18.90;71.60
80274;DHT22;69576;51.902;-8.462;2023-07-31T01:03:03;18.90;71.70
80274;DHT22;69576;51.902;-8.462;2023-07-31T01:08:32;18.90;71.40
80274;DHT22;69576;51.902;-8.462;2023-07-31T01:11:09;18.90;71.20
80274;DHT22;69576;51.902;-8.462;2023-07-31T01:13:39;18.90;71.20
80274;DHT22;69576;51.902;-8.462;2023-07-31T01:16:08;18.90;71.40
80274;DHT22;69576;51.902;-8.462;2023-07-31T01:18:33;18.90;71.70
80274;DHT22;69576;51.902;-8.462;2023-07-31T01:26:39;18.90;71.50
80274;DHT22;69576;51.902;-8.462;2023-07-31T01:31:53;18.90;71.70
80274;DHT22;69576;51.902;-8.462;2023-07-31T01:34:21;18.90;71.70
80274;DHT22;69576;51.902;-8.462;2023-07-31T01:36:49;18.90;71.60
80274;DHT22;69576;51.902;-8.462;2023-07-31T01:39:15;18.90;71.60
80274;DHT22;69576;51.902;-8.462;2023-07-31T01:41:43;18.90;71.50
80274;DHT22;69576;51.902;-8.462;2023-07-31T01:44:11;18.90;71.70
80274;DHT22;69576;51.902;-8.462;2023-07-31T01:46:37;18.90;71.80
80274;DHT22;69576;51.902;-8.462;2023-07-31T01:49:05;18.90;71.60
80274;DHT22;69576;51.902;-8.462;2023-07-31T01:51:31;18.90;71.70
80274;DHT22;69576;51.902;-8.462;2023-07-31T01:54:01;18.90;71.80
80274;DHT22;69576;51.902;-8.462;2023-07-31T01:56:26;18.90;71.70
80274;DHT22;69576;51.902;-8.462;2023-07-31T01:58:55;18.90;71.70
80274;DHT22;69576;51.902;-8.462;2023-07-31T02:01:21;18.90;71.50
80274;DHT22;69576;51.902;-8.462;2023-07-31T02:03:46;18.90;71.40
80274;DHT22;69576;51.902;-8.462;2023-07-31T02:06:12;18.80;71.20
80274;DHT22;69576;51.902;-8.462;2023-07-31T02:08:38;18.80;71.30
80274;DHT22;69576;51.902;-8.462;2023-07-31T02:11:04;18.80;71.40
80274;DHT22;69576;51.902;-8.462;2023-07-31T02:13:32;18.80;71.50
80274;DHT22;69576;51.902;-8.462;2023-07-31T02:15:58;18.80;71.50
80274;DHT22;69576;51.902;-8.462;2023-07-31T02:18:23;18.80;71.60
80274;DHT22;69576;51.902;-8.462;2023-07-31T02:20:50;18.80;71.50
80274;DHT22;69576;51.902;-8.462;2023-07-31T02:23:19;18.80;71.50
80274;DHT22;69576;51.902;-8.462;2023-07-31T02:25:45;18.80;71.50
80274;DHT22;69576;51.902;-8.462;2023-07-31T02:28:11;18.80;71.30
80274;DHT22;69576;51.902;-8.462;2023-07-31T02:30:37;18.80;71.30
80274;DHT22;69576;51.902;-8.462;2023-07-31T02:33:04;18.80;71.50
80274;DHT22;69576;51.902;-8.462;2023-07-31T02:35:30;18.80;71.50
80274;DHT22;69576;51.902;-8.462;2023-07-31T02:37:58;18.80;71.30
80274;DHT22;69576;51.902;-8.462;2023-07-31T02:40:23;18.80;71.40
80274;DHT22;69576;51.902;-8.462;2023-07-31T02:42:49;18.80;71.50
80274;DHT22;69576;51.902;-8.462;2023-07-31T02:45:15;18.80;71.40
80274;DHT22;69576;51.902;-8.462;2023-07-31T02:47:43;18.80;71.50
80274;DHT22;69576;51.902;-8.462;2023-07-31T02:50:11;18.80;71.60
80274;DHT22;69576;51.902;-8.462;2023-07-31T02:52:37;18.80;71.40
80274;DHT22;69576;51.902;-8.462;2023-07-31T02:55:03;18.80;71.50
80274;DHT22;69576;51.902;-8.462;2023-07-31T02:57:33;18.80;71.50
80274;DHT22;69576;51.902;-8.462;2023-07-31T02:59:59;18.80;71.40
80274;DHT22;69576;51.902;-8.462;2023-07-31T03:02:25;18.80;71.40
80274;DHT22;69576;51.902;-8.462;2023-07-31T03:04:50;18.80;71.30
80274;DHT22;69576;51.902;-8.462;2023-07-31T03:07:16;18.70;71.20
80274;DHT22;69576;51.902;-8.462;2023-07-31T03:09:42;18.70;70.90
80274;DHT22;69576;51.902;-8.462;2023-07-31T03:12:08;18.70;70.90
80274;DHT22;69576;51.902;-8.462;2023-07-31T03:14:34;18.70;71.20
80274;DHT22;69576;51.902;-8.462;2023-07-31T03:17:02;18.70;71.00
80274;DHT22;69576;51.902;-8.462;2023-07-31T03:19:33;18.70;71.00
80274;DHT22;69576;51.902;-8.462;2023-07-31T03:21:59;18.70;70.90
80274;DHT22;69576;51.902;-8.462;2023-07-31T03:24:25;18.70;71.00
80274;DHT22;69576;51.902;-8.462;2023-07-31T03:26:51;18.70;71.30
80274;DHT22;69576;51.902;-8.462;2023-07-31T03:29:17;18.70;71.50
80274;DHT22;69576;51.902;-8.462;2023-07-31T03:31:42;18.70;71.50
80274;DHT22;69576;51.902;-8.462;2023-07-31T03:34:08;18.70;71.50
80274;DHT22;69576;51.902;-8.462;2023-07-31T03:36:36;18.70;71.40
80274;DHT22;69576;51.902;-8.462;2023-07-31T03:39:04;18.70;71.30
80274;DHT22;69576;51.902;-8.462;2023-07-31T03:41:30;18.70;71.20
80274;DHT22;69576;51.902;-8.462;2023-07-31T03:43:58;18.70;71.50
80274;DHT22;69576;51.902;-8.462;2023-07-31T03:46:24;18.70;71.40
80274;DHT22;69576;51.902;-8.462;2023-07-31T03:48:50;18.70;71.50
80274;DHT22;69576;51.902;-8.462;2023-07-31T03:51:16;18.70;71.50
80274;DHT22;69576;51.902;-8.462;2023-07-31T03:53:43;18.70;71.40
80274;DHT22;69576;51.902;-8.462;2023-07-31T03:56:09;18.70;71.40
80274;DHT22;69576;51.902;-8.462;2023-07-31T03:58:37;18.70;71.50
80274;DHT22;69576;51.902;-8.462;2023-07-31T04:01:03;18.70;71.50
80274;DHT22;69576;51.902;-8.462;2023-07-31T04:03:34;18.70;71.30
80274;DHT22;69576;51.902;-8.462;2023-07-31T04:06:00;18.70;71.10
80274;DHT22;69576;51.902;-8.462;2023-07-31T04:08:25;18.70;71.20
80274;DHT22;69576;51.902;-8.462;2023-07-31T04:10:53;18.70;71.10
80274;DHT22;69576;51.902;-8.462;2023-07-31T04:13:22;18.70;71.20
80274;DHT22;69576;51.902;-8.462;2023-07-31T04:15:50;18.70;71.20
80274;DHT22;69576;51.902;-8.462;2023-07-31T04:18:16;18.70;71.40
80274;DHT22;69576;51.902;-8.462;2023-07-31T04:20:45;18.70;71.10
80274;DHT22;69576;51.902;-8.462;2023-07-31T04:23:13;18.70;71.00
80274;DHT22;69576;51.902;-8.462;2023-07-31T04:25:38;18.70;71.00
80274;DHT22;69576;51.902;-8.462;2023-07-31T04:28:04;18.70;70.90
80274;DHT22;69576;51.902;-8.462;2023-07-31T04:30:30;18.60;70.80
80274;DHT22;69576;51.902;-8.462;2023-07-31T04:32:56;18.60;70.90
80274;DHT22;69576;51.902;-8.462;2023-07-31T04:35:22;18.60;71.00
80274;DHT22;69576;51.902;-8.462;2023-07-31T04:37:49;18.60;71.20
80274;DHT22;69576;51.902;-8.462;2023-07-31T04:40:18;18.70;71.20
80274;DHT22;69576;51.902;-8.462;2023-07-31T04:42:46;18.70;71.30
80274;DHT22;69576;51.902;-8.462;2023-07-31T04:45:12;18.70;71.20
80274;DHT22;69576;51.902;-8.462;2023-07-31T04:47:38;18.70;71.10
80274;DHT22;69576;51.902;-8.462;2023-07-31T04:50:04;18.70;70.80
80274;DHT22;69576;51.902;-8.462;2023-07-31T04:52:29;18.60;70.90
80274;DHT22;69576;51.902;-8.462;2023-07-31T04:54:55;18.60;71.10
80274;DHT22;69576;51.902;-8.462;2023-07-31T04:57:23;18.70;71.10
80274;DHT22;69576;51.902;-8.462;2023-07-31T04:59:49;18.60;70.90
80274;DHT22;69576;51.902;-8.462;2023-07-31T05:02:15;18.60;70.90
80274;DHT22;69576;51.902;-8.462;2023-07-31T05:04:43;18.60;70.70
80274;DHT22;69576;51.902;-8.462;2023-07-31T05:07:09;18.60;70.60
80274;DHT22;69576;51.902;-8.462;2023-07-31T05:09:34;18.60;70.70
80274;DHT22;69576;51.902;-8.462;2023-07-31T05:12:00;18.60;70.70
80274;DHT22;69576;51.902;-8.462;2023-07-31T05:14:28;18.60;70.50
80274;DHT22;69576;51.902;-8.462;2023-07-31T05:16:54;18.60;70.50
80274;DHT22;69576;51.902;-8.462;2023-07-31T05:19:20;18.60;70.60
80274;DHT22;69576;51.902;-8.462;2023-07-31T05:21:45;18.60;70.50
80274;DHT22;69576;51.902;-8.462;2023-07-31T05:24:11;18.50;70.50
80274;DHT22;69576;51.902;-8.462;2023-07-31T05:26:39;18.60;70.50
80274;DHT22;69576;51.902;-8.462;2023-07-31T05:29:07;18.50;70.50
80274;DHT22;69576;51.902;-8.462;2023-07-31T05:31:33;18.50;70.70
80274;DHT22;69576;51.902;-8.462;2023-07-31T05:33:59;18.50;70.60
80274;DHT22;69576;51.902;-8.462;2023-07-31T05:36:24;18.50;70.80
80274;DHT22;69576;51.902;-8.462;2023-07-31T05:38:50;18.50;71.00
80274;DHT22;69576;51.902;-8.462;2023-07-31T05:41:16;18.50;71.10
80274;DHT22;69576;51.902;-8.462;2023-07-31T05:43:46;18.60;71.20
80274;DHT22;69576;51.902;-8.462;2023-07-31T05:46:11;18.60;71.40
80274;DHT22;69576;51.902;-8.462;2023-07-31T05:48:37;18.60;71.40
80274;DHT22;69576;51.902;-8.462;2023-07-31T05:51:03;18.60;71.30
80274;DHT22;69576;51.902;-8.462;2023-07-31T05:53:31;18.60;71.20
80274;DHT22;69576;51.902;-8.462;2023-07-31T05:56:00;18.60;71.20
80274;DHT22;69576;51.902;-8.462;2023-07-31T05:58:25;18.60;71.30
80274;DHT22;69576;51.902;-8.462;2023-07-31T06:00:51;18.60;71.30
80274;DHT22;69576;51.902;-8.462;2023-07-31T06:03:17;18.60;71.20
80274;DHT22;69576;51.902;-8.462;2023-07-31T06:05:45;18.70;71.10
80274;DHT22;69576;51.902;-8.462;2023-07-31T06:08:13;18.60;71.10
80274;DHT22;69576;51.902;-8.462;2023-07-31T06:10:38;18.60;71.10
80274;DHT22;69576;51.902;-8.462;2023-07-31T06:13:04;18.70;71.30
80274;DHT22;69576;51.902;-8.462;2023-07-31T06:15:30;18.70;71.40
80274;DHT22;69576;51.902;-8.462;2023-07-31T06:17:58;18.70;71.20
80274;DHT22;69576;51.902;-8.462;2023-07-31T06:20:24;18.70;71.40
80274;DHT22;69576;51.902;-8.462;2023-07-31T06:22:50;18.70;71.40
80274;DHT22;69576;51.902;-8.462;2023-07-31T06:25:16;18.80;71.40
80274;DHT22;69576;51.902;-8.462;2023-07-31T06:27:46;18.80;71.40
80274;DHT22;69576;51.902;-8.462;2023-07-31T06:30:12;18.80;71.50
80274;DHT22;69576;51.902;-8.462;2023-07-31T06:32:38;18.90;71.30
80274;DHT22;69576;51.902;-8.462;2023-07-31T06:35:04;18.90;71.10
80274;DHT22;69576;51.902;-8.462;2023-07-31T06:37:32;18.90;71.00
80274;DHT22;69576;51.902;-8.462;2023-07-31T06:40:00;19.00;71.20
80274;DHT22;69576;51.902;-8.462;2023-07-31T06:42:30;19.00;71.10
80274;DHT22;69576;51.902;-8.462;2023-07-31T06:44:58;19.00;70.90
80274;DHT22;69576;51.902;-8.462;2023-07-31T06:47:24;19.00;71.10
80274;DHT22;69576;51.902;-8.462;2023-07-31T06:49:55;19.00;71.00
80274;DHT22;69576;51.902;-8.462;2023-07-31T06:52:21;19.00;71.10
80274;DHT22;69576;51.902;-8.462;2023-07-31T06:55:03;19.10;71.10
80274;DHT22;69576;51.902;-8.462;2023-07-31T06:57:30;19.10;70.70
80274;DHT22;69576;51.902;-8.462;2023-07-31T06:59:55;19.10;71.00
80274;DHT22;69576;51.902;-8.462;2023-07-31T07:02:21;19.10;71.10
80274;DHT22;69576;51.902;-8.462;2023-07-31T07:04:47;19.10;71.00
80274;DHT22;69576;51.902;-8.462;2023-07-31T07:07:17;19.10;71.00
80274;DHT22;69576;51.902;-8.462;2023-07-31T07:09:42;19.10;70.80
80274;DHT22;69576;51.902;-8.462;2023-07-31T07:12:08;19.10;70.90
80274;DHT22;69576;51.902;-8.462;2023-07-31T07:14:34;19.10;70.90
80274;DHT22;69576;51.902;-8.462;2023-07-31T07:17:02;19.10;70.70
80274;DHT22;69576;51.902;-8.462;2023-07-31T07:19:32;19.20;70.40
80274;DHT22;69576;51.902;-8.462;2023-07-31T07:21:58;19.20;70.30
80274;DHT22;69576;51.902;-8.462;2023-07-31T07:24:27;19.10;70.10
80274;DHT22;69576;51.902;-8.462;2023-07-31T07:26:55;19.20;70.70
80274;DHT22;69576;51.902;-8.462;2023-07-31T07:29:21;19.20;70.30
80274;DHT22;69576;51.902;-8.462;2023-07-31T07:31:49;19.20;70.50
80274;DHT22;69576;51.902;-8.462;2023-07-31T07:34:19;19.20;70.60
80274;DHT22;69576;51.902;-8.462;2023-07-31T07:36:48;19.30;70.70
80274;DHT22;69576;51.902;-8.462;2023-07-31T07:39:14;19.30;71.00
80274;DHT22;69576;51.902;-8.462;2023-07-31T07:41:40;19.40;71.00
80274;DHT22;69576;51.902;-8.462;2023-07-31T07:44:08;19.40;70.40
80274;DHT22;69576;51.902;-8.462;2023-07-31T07:46:36;19.40;70.10
80274;DHT22;69576;51.902;-8.462;2023-07-31T07:49:04;19.40;70.20
80274;DHT22;69576;51.902;-8.462;2023-07-31T07:51:29;19.40;70.10
80274;DHT22;69576;51.902;-8.462;2023-07-31T07:54:00;19.50;69.80
80274;DHT22;69576;51.902;-8.462;2023-07-31T07:56:27;19.50;69.40
80274;DHT22;69576;51.902;-8.462;2023-07-31T07:58:55;19.40;69.10
80274;DHT22;69576;51.902;-8.462;2023-07-31T08:01:21;19.40;69.10
80274;DHT22;69576;51.902;-8.462;2023-07-31T08:03:47;19.40;69.00
80274;DHT22;69576;51.902;-8.462;2023-07-31T08:06:15;19.40;68.90
80274;DHT22;69576;51.902;-8.462;2023-07-31T08:08:41;19.30;68.80
80274;DHT22;69576;51.902;-8.462;2023-07-31T08:11:07;19.30;68.80
80274;DHT22;69576;51.902;-8.462;2023-07-31T08:13:32;19.30;68.80
80274;DHT22;69576;51.902;-8.462;2023-07-31T08:15:58;19.30;68.80
80274;DHT22;69576;51.902;-8.462;2023-07-31T08:18:24;19.30;68.80
80274;DHT22;69576;51.902;-8.462;2023-07-31T08:20:50;19.30;68.70
80274;DHT22;69576;51.902;-8.462;2023-07-31T08:23:15;19.30;68.70
80274;DHT22;69576;51.902;-8.462;2023-07-31T08:25:42;19.30;68.80
80274;DHT22;69576;51.902;-8.462;2023-07-31T08:28:10;19.20;68.70
80274;DHT22;69576;51.902;-8.462;2023-07-31T08:30:36;19.20;68.80
80274;DHT22;69576;51.902;-8.462;2023-07-31T08:33:02;19.20;68.80
80274;DHT22;69576;51.902;-8.462;2023-07-31T08:35:28;19.20;68.80
80274;DHT22;69576;51.902;-8.462;2023-07-31T08:37:54;19.20;68.90
80274;DHT22;69576;51.902;-8.462;2023-07-31T08:40:22;19.20;68.80
80274;DHT22;69576;51.902;-8.462;2023-07-31T08:42:49;19.20;69.00
80274;DHT22;69576;51.902;-8.462;2023-07-31T08:45:19;19.30;68.90
80274;DHT22;69576;51.902;-8.462;2023-07-31T08:47:49;19.40;68.80
80274;DHT22;69576;51.902;-8.462;2023-07-31T08:50:19;19.40;68.70
80274;DHT22;69576;51.902;-8.462;2023-07-31T08:52:49;19.40;68.60
80274;DHT22;69576;51.902;-8.462;2023-07-31T08:55:18;19.40;68.60
80274;DHT22;69576;51.902;-8.462;2023-07-31T08:57:51;19.40;68.40
80274;DHT22;69576;51.902;-8.462;2023-07-31T09:00:22;19.40;68.20
80274;DHT22;69576;51.902;-8.462;2023-07-31T09:02:57;19.40;68.20
80274;DHT22;69576;51.902;-8.462;2023-07-31T09:05:29;19.40;68.30
80274;DHT22;69576;51.902;-8.462;2023-07-31T09:07:57;19.40;68.10
80274;DHT22;69576;51.902;-8.462;2023-07-31T09:10:24;19.40;68.20
80274;DHT22;69576;51.902;-8.462;2023-07-31T09:12:51;19.30;68.20
80274;DHT22;69576;51.902;-8.462;2023-07-31T09:15:18;19.30;68.30
80274;DHT22;69576;51.902;-8.462;2023-07-31T09:17:46;19.30;68.40
80274;DHT22;69576;51.902;-8.462;2023-07-31T09:20:16;19.30;68.30
80274;DHT22;69576;51.902;-8.462;2023-07-31T09:22:43;19.40;68.40
80274;DHT22;69576;51.902;-8.462;2023-07-31T09:25:18;19.50;68.30
80274;DHT22;69576;51.902;-8.462;2023-07-31T09:30:16;19.70;68.20
80274;DHT22;69576;51.902;-8.462;2023-07-31T09:32:48;19.70;68.00
80274;DHT22;69576;51.902;-8.462;2023-07-31T09:35:28;19.70;67.90
80274;DHT22;69576;51.902;-8.462;2023-07-31T09:38:03;19.70;67.90
80274;DHT22;69576;51.902;-8.462;2023-07-31T09:40:30;19.70;68.00
80274;DHT22;69576;51.902;-8.462;2023-07-31T09:43:02;19.70;68.00
80274;DHT22;69576;51.902;-8.462;2023-07-31T09:45:29;19.90;67.90
80274;DHT22;69576;51.902;-8.462;2023-07-31T09:47:55;20.00;67.50
80274;DHT22;69576;51.902;-8.462;2023-07-31T09:50:24;19.90;67.20
80274;DHT22;69576;51.902;-8.462;2023-07-31T09:52:50;19.90;67.20
80274;DHT22;69576;51.902;-8.462;2023-07-31T09:55:20;19.90;67.10
80274;DHT22;69576;51.902;-8.462;2023-07-31T09:57:48;19.90;67.30
80274;DHT22;69576;51.902;-8.462;2023-07-31T10:00:16;19.90;67.40
80274;DHT22;69576;51.902;-8.462;2023-07-31T10:02:45;19.90;67.40
80274;DHT22;69576;51.902;-8.462;2023-07-31T10:05:16;19.90;67.50
80274;DHT22;69576;51.902;-8.462;2023-07-31T10:07:54;19.90;67.40
80274;DHT22;69576;51.902;-8.462;2023-07-31T10:10:23;20.00;67.20
80274;DHT22;69576;51.902;-8.462;2023-07-31T10:12:49;20.00;67.20
80274;DHT22;69576;51.902;-8.462;2023-07-31T10:15:15;20.00;67.00
80274;DHT22;69576;51.902;-8.462;2023-07-31T10:17:47;20.00;66.90
80274;DHT22;69576;51.902;-8.462;2023-07-31T10:20:13;20.00;66.90
80274;DHT22;69576;51.902;-8.462;2023-07-31T10:22:42;20.10;66.50
80274;DHT22;69576;51.902;-8.462;2023-07-31T10:25:09;20.10;66.40
80274;DHT22;69576;51.902;-8.462;2023-07-31T10:27:36;20.10;66.20
80274;DHT22;69576;51.902;-8.462;2023-07-31T10:30:05;20.10;66.00
80274;DHT22;69576;51.902;-8.462;2023-07-31T10:32:34;20.10;65.80
80274;DHT22;69576;51.902;-8.462;2023-07-31T10:35:02;20.10;65.90
80274;DHT22;69576;51.902;-8.462;2023-07-31T10:37:31;20.30;66.00
80274;DHT22;69576;51.902;-8.462;2023-07-31T10:42:38;20.70;65.90
80274;DHT22;69576;51.902;-8.462;2023-07-31T10:45:07;20.90;65.70
80274;DHT22;69576;51.902;-8.462;2023-07-31T10:47:59;21.10;65.40
80274;DHT22;69576;51.902;-8.462;2023-07-31T10:50:29;21.10;64.30
80274;DHT22;69576;51.902;-8.462;2023-07-31T10:52:58;21.10;64.10
80274;DHT22;69576;51.902;-8.462;2023-07-31T10:58:09;21.10;64.10
80274;DHT22;69576;51.902;-8.462;2023-07-31T11:00:38;21.30;64.30
80274;DHT22;69576;51.902;-8.462;2023-07-31T11:03:06;21.50;64.30
80274;DHT22;69576;51.902;-8.462;2023-07-31T11:05:42;21.70;64.00
80274;DHT22;69576;51.902;-8.462;2023-07-31T11:10:40;22.00;63.50
80274;DHT22;69576;51.902;-8.462;2023-07-31T11:13:06;22.20;63.40
80274;DHT22;69576;51.902;-8.462;2023-07-31T11:15:34;22.30;62.80
80274;DHT22;69576;51.902;-8.462;2023-07-31T11:18:03;22.30;62.30
80274;DHT22;69576;51.902;-8.462;2023-07-31T11:20:31;22.20;62.00
80274;DHT22;69576;51.902;-8.462;2023-07-31T11:23:07;22.20;62.40
80274;DHT22;69576;51.902;-8.462;2023-07-31T11:25:34;22.30;62.70
80274;DHT22;69576;51.902;-8.462;2023-07-31T11:28:06;22.30;62.60
80274;DHT22;69576;51.902;-8.462;2023-07-31T11:30:33;22.40;62.70
80274;DHT22;69576;51.902;-8.462;2023-07-31T11:33:01;22.50;62.50
80274;DHT22;69576;51.902;-8.462;2023-07-31T11:35:32;22.50;62.30
80274;DHT22;69576;51.902;-8.462;2023-07-31T11:38:01;22.40;61.90
80274;DHT22;69576;51.902;-8.462;2023-07-31T11:40:28;22.30;61.90
80274;DHT22;69576;51.902;-8.462;2023-07-31T11:42:58;22.30;62.20
80274;DHT22;69576;51.902;-8.462;2023-07-31T11:45:27;22.20;62.20
80274;DHT22;69576;51.902;-8.462;2023-07-31T11:48:01;22.10;62.30
80274;DHT22;69576;51.902;-8.462;2023-07-31T11:50:33;22.00;62.30
80274;DHT22;69576;51.902;-8.462;2023-07-31T11:53:02;21.90;62.30
80274;DHT22;69576;51.902;-8.462;2023-07-31T11:55:30;21.90;62.30
80274;DHT22;69576;51.902;-8.462;2023-07-31T11:57:57;21.90;62.60
80274;DHT22;69576;51.902;-8.462;2023-07-31T12:00:27;22.00;62.70
80274;DHT22;69576;51.902;-8.462;2023-07-31T12:02:55;22.00;63.00
80274;DHT22;69576;51.902;-8.462;2023-07-31T12:05:23;22.00;62.80
80274;DHT22;69576;51.902;-8.462;2023-07-31T12:07:53;22.00;62.80
80274;DHT22;69576;51.902;-8.462;2023-07-31T12:10:30;22.00;62.70
80274;DHT22;69576;51.902;-8.462;2023-07-31T12:13:00;22.10;62.90
80274;DHT22;69576;51.902;-8.462;2023-07-31T12:15:45;22.10;63.00
80274;DHT22;69576;51.902;-8.462;2023-07-31T12:18:19;22.10;62.70
80274;DHT22;69576;51.902;-8.462;2023-07-31T12:20:47;22.10;62.90
80274;DHT22;69576;51.902;-8.462;2023-07-31T12:23:15;22.10;63.10
80274;DHT22;69576;51.902;-8.462;2023-07-31T12:25:44;22.10;63.10
80274;DHT22;69576;51.902;-8.462;2023-07-31T12:28:10;22.20;62.60
80274;DHT22;69576;51.902;-8.462;2023-07-31T12:30:40;22.10;62.90
80274;DHT22;69576;51.902;-8.462;2023-07-31T12:33:15;22.10;62.80
80274;DHT22;69576;51.902;-8.462;2023-07-31T12:35:44;22.00;62.80
80274;DHT22;69576;51.902;-8.462;2023-07-31T12:38:14;22.00;62.80
80274;DHT22;69576;51.902;-8.462;2023-07-31T12:40:45;21.90;62.50
80274;DHT22;69576;51.902;-8.462;2023-07-31T12:43:10;21.90;62.00
80274;DHT22;69576;51.902;-8.462;2023-07-31T12:45:36;21.80;61.80
80274;DHT22;69576;51.902;-8.462;2023-07-31T12:48:02;21.70;62.20
80274;DHT22;69576;51.902;-8.462;2023-07-31T12:50:28;21.70;62.30
80274;DHT22;69576;51.902;-8.462;2023-07-31T12:52:54;21.70;62.70
80274;DHT22;69576;51.902;-8.462;2023-07-31T12:55:21;21.70;62.70
80274;DHT22;69576;51.902;-8.462;2023-07-31T12:57:47;21.80;62.80
80274;DHT22;69576;51.902;-8.462;2023-07-31T13:00:13;21.80;62.70
80274;DHT22;69576;51.902;-8.462;2023-07-31T13:02:39;21.70;62.70
80274;DHT22;69576;51.902;-8.462;2023-07-31T13:05:07;21.70;62.80
80274;DHT22;69576;51.902;-8.462;2023-07-31T13:07:33;21.70;62.90
80274;DHT22;69576;51.902;-8.462;2023-07-31T13:10:02;21.70;62.90
80274;DHT22;69576;51.902;-8.462;2023-07-31T13:12:27;21.70;62.80
80274;DHT22;69576;51.902;-8.462;2023-07-31T13:14:53;21.70;62.50
80274;DHT22;69576;51.902;-8.462;2023-07-31T13:17:19;21.60;62.60
80274;DHT22;69576;51.902;-8.462;2023-07-31T13:19:45;21.60;62.80
80274;DHT22;69576;51.902;-8.462;2023-07-31T13:22:12;21.50;62.30
80274;DHT22;69576;51.902;-8.462;2023-07-31T13:24:38;21.50;62.10
80274;DHT22;69576;51.902;-8.462;2023-07-31T13:27:04;21.40;62.00
80274;DHT22;69576;51.902;-8.462;2023-07-31T13:29:32;21.40;62.20
80274;DHT22;69576;51.902;-8.462;2023-07-31T13:31:58;21.40;62.50
80274;DHT22;69576;51.902;-8.462;2023-07-31T13:34:24;21.40;62.60
80274;DHT22;69576;51.902;-8.462;2023-07-31T13:36:50;21.30;62.50
80274;DHT22;69576;51.902;-8.462;2023-07-31T13:39:18;21.30;62.30
80274;DHT22;69576;51.902;-8.462;2023-07-31T13:41:44;21.20;62.20
80274;DHT22;69576;51.902;-8.462;2023-07-31T13:44:09;21.10;62.30
80274;DHT22;69576;51.902;-8.462;2023-07-31T13:46:35;21.10;62.30
80274;DHT22;69576;51.902;-8.462;2023-07-31T13:49:04;21.10;62.20
80274;DHT22;69576;51.902;-8.462;2023-07-31T13:51:29;21.10;62.20
80274;DHT22;69576;51.902;-8.462;2023-07-31T13:53:58;21.00;62.40
80274;DHT22;69576;51.902;-8.462;2023-07-31T13:56:28;21.00;62.50
80274;DHT22;69576;51.902;-8.462;2023-07-31T13:58:54;21.00;62.90
80274;DHT22;69576;51.902;-8.462;2023-07-31T14:01:22;21.00;63.10
80274;DHT22;69576;51.902;-8.462;2023-07-31T14:03:48;21.00;63.10
80274;DHT22;69576;51.902;-8.462;2023-07-31T14:06:13;20.90;63.20
80274;DHT22;69576;51.902;-8.462;2023-07-31T14:08:39;20.90;63.20
80274;DHT22;69576;51.902;-8.462;2023-07-31T14:11:07;20.90;63.20
80274;DHT22;69576;51.902;-8.462;2023-07-31T14:13:33;20.90;63.20
80274;DHT22;69576;51.902;-8.462;2023-07-31T14:15:59;20.90;63.30
80274;DHT22;69576;51.902;-8.462;2023-07-31T14:18:27;20.90;63.20
80274;DHT22;69576;51.902;-8.462;2023-07-31T14:20:53;20.90;63.10
80274;DHT22;69576;51.902;-8.462;2023-07-31T14:23:19;20.90;63.20
80274;DHT22;69576;51.902;-8.462;2023-07-31T14:25:46;20.90;63.20
80274;DHT22;69576;51.902;-8.462;2023-07-31T14:28:14;20.90;63.20
80274;DHT22;69576;51.902;-8.462;2023-07-31T14:30:44;20.80;63.20
80274;DHT22;69576;51.902;-8.462;2023-07-31T14:33:12;20.80;63.20
80274;DHT22;69576;51.902;-8.462;2023-07-31T14:35:40;20.80;63.40
80274;DHT22;69576;51.902;-8.462;2023-07-31T14:38:06;20.80;63.70
80274;DHT22;69576;51.902;-8.462;2023-07-31T14:40:32;20.80;63.70
80274;DHT22;69576;51.902;-8.462;2023-07-31T14:43:00;20.80;63.80
80274;DHT22;69576;51.902;-8.462;2023-07-31T14:45:26;20.80;64.00
80274;DHT22;69576;51.902;-8.462;2023-07-31T14:47:52;20.80;64.30
80274;DHT22;69576;51.902;-8.462;2023-07-31T14:50:19;20.80;64.50
80274;DHT22;69576;51.902;-8.462;2023-07-31T14:52:47;20.80;64.50
80274;DHT22;69576;51.902;-8.462;2023-07-31T14:55:13;20.80;64.50
80274;DHT22;69576;51.902;-8.462;2023-07-31T14:57:39;20.80;64.60
80274;DHT22;69576;51.902;-8.462;2023-07-31T15:00:08;20.80;64.50
80274;DHT22;69576;51.902;-8.462;2023-07-31T15:02:37;20.90;64.50
80274;DHT22;69576;51.902;-8.462;2023-07-31T15:05:06;20.90;64.60
80274;DHT22;69576;51.902;-8.462;2023-07-31T15:07:33;21.00;64.00
80274;DHT22;69576;51.902;-8.462;2023-07-31T15:09:59;21.00;64.10
80274;DHT22;69576;51.902;-8.462;2023-07-31T15:12:25;21.00;64.10
80274;DHT22;69576;51.902;-8.462;2023-07-31T15:14:53;21.00;64.10
80274;DHT22;69576;51.902;-8.462;2023-07-31T15:17:21;21.10;64.00
80274;DHT22;69576;51.902;-8.462;2023-07-31T15:19:47;21.10;64.00
80274;DHT22;69576;51.902;-8.462;2023-07-31T15:22:16;21.10;64.00
80274;DHT22;69576;51.902;-8.462;2023-07-31T15:24:44;21.10;63.80
80274;DHT22;69576;51.902;-8.462;2023-07-31T15:27:10;21.10;63.90
80274;DHT22;69576;51.902;-8.462;2023-07-31T15:29:35;21.10;63.80
80274;DHT22;69576;51.902;-8.462;2023-07-31T15:32:08;21.10;63.40
80274;DHT22;69576;51.902;-8.462;2023-07-31T15:34:34;21.10;62.90
80274;DHT22;69576;51.902;-8.462;2023-07-31T15:37:00;21.00;62.90
80274;DHT22;69576;51.902;-8.462;2023-07-31T15:39:26;21.00;63.10